North Fryeburg, Maine
Current Conditions -  °F | °C
As of 12:54 AM on Thursday 23 Oct 2014 (Local Time) from KIZG Reporting Station
Light Rain Light Rain  
Wind Chill: 40°   Ceiling: 1400
Heat Index: 46°   Visibility: 8mi
Dew Point: 43°   Wind: 15mph
Humidity: 89%   Direction: 40°NE
Pressure: 30.01"   Gusts: 28mph
Location:  44.0478°N, 70.9547°W
Report Text: KIZG 230454Z AUTO 04013G24KT 8SM -RA OVC014 08/06 A3001 RMK AO2 SLP164 P0004 T00780061 401060072
Loading
Personal Weather Stations






























Interactive Weather Map
Tropical Storm Tracking
New forecast layout! Learn more

10-Day Weather Forecast

Advertisements
Track Severe Weather on mobile